createdAt,value
2022-08-30T05:42:58.481Z,101747.50
2022-08-30T05:48:01.740Z,101744.91
2022-08-30T05:53:04.133Z,101751.91
2022-08-30T05:58:06.392Z,101748.59
2022-08-30T06:03:12.021Z,101752.03
2022-08-30T06:08:14.379Z,101750.09
2022-08-30T06:13:16.993Z,101749.03
2022-08-30T06:18:21.644Z,101757.03
2022-08-30T06:23:31.538Z,101754.75
2022-08-30T06:28:34.703Z,101758.63
2022-08-30T06:33:37.499Z,101760.34
2022-08-30T06:38:40.649Z,101766.97
2022-08-30T06:43:48.713Z,101762.78
2022-08-30T06:48:52.229Z,101760.78
2022-08-30T06:53:59.004Z,101757.94
2022-08-30T06:59:02.127Z,101760.91
2022-08-30T07:04:04.750Z,101776.25
2022-08-30T07:09:07.209Z,101778.13
2022-08-30T07:14:09.597Z,101787.88
2022-08-30T07:19:18.590Z,101785.50
2022-08-30T07:24:23.140Z,101801.56
2022-08-30T07:29:25.417Z,101793.88
2022-08-30T07:34:27.695Z,101775.97
2022-08-30T07:39:29.988Z,101797.56
2022-08-30T07:44:34.250Z,101797.13
2022-08-30T07:49:37.060Z,101800.72
2022-08-30T07:54:39.305Z,101795.78
2022-08-30T07:59:41.695Z,101802.16
2022-08-30T08:04:44.380Z,101802.84
2022-08-30T08:09:46.637Z,101808.47
2022-08-30T08:14:48.929Z,101812.16
2022-08-30T08:19:51.252Z,101808.94
2022-08-30T08:24:53.589Z,101818.25
2022-08-30T08:29:55.854Z,101815.78
2022-08-30T08:34:58.110Z,101822.91
2022-08-30T08:40:00.441Z,101822.44
2022-08-30T08:45:11.390Z,101832.38
2022-08-30T08:50:18.866Z,101828.31
2022-08-30T08:55:24.286Z,101828.03
2022-08-30T09:00:26.534Z,101828.28
2022-08-30T09:05:40.323Z,101823.47
2022-08-30T09:11:05.376Z,101835.63
2022-08-30T09:16:08.921Z,101827.25
2022-08-30T09:21:24.624Z,101835.66
2022-08-30T09:26:35.782Z,101834.69
2022-08-30T09:32:10.142Z,101829.13
2022-08-30T09:37:29.405Z,101824.28
2022-08-30T09:42:31.704Z,101828.81
2022-08-30T09:47:35.063Z,101831.03
2022-08-30T09:52:55.702Z,101827.25
2022-08-30T09:58:07.062Z,101822.00
2022-08-30T10:03:12.396Z,101820.13
2022-08-30T10:08:33.416Z,101813.78
2022-08-30T10:13:59.374Z,101813.00
2022-08-30T10:19:19.987Z,101814.88
2022-08-30T10:24:33.300Z,101810.56
2022-08-30T10:29:51.465Z,101818.34
2022-08-30T10:35:04.348Z,101813.84
2022-08-30T10:40:33.451Z,101811.41
2022-08-30T10:45:40.566Z,101809.28
2022-08-30T10:50:50.002Z,101817.78
2022-08-30T10:55:55.337Z,101815.88
2022-08-30T11:01:36.148Z,101821.25
2022-08-30T11:06:41.637Z,101820.91
2022-08-30T11:12:08.649Z,101824.94
2022-08-30T11:17:23.595Z,101831.81
2022-08-30T11:22:39.286Z,101832.66
2022-08-30T11:27:46.187Z,101822.78
2022-08-30T11:33:25.623Z,101820.81
2022-08-30T11:38:28.385Z,101825.88
2022-08-30T11:43:36.981Z,101821.09
2022-08-30T11:49:08.513Z,101812.28
2022-08-30T11:54:34.100Z,101801.47
2022-08-30T12:00:04.906Z,101804.09
2022-08-30T12:05:40.875Z,101812.44
2022-08-30T12:10:47.081Z,101820.50
2022-08-30T12:15:55.163Z,101822.13
2022-08-30T12:21:05.120Z,101830.69
2022-08-30T12:26:29.215Z,101821.78
2022-08-30T12:31:31.587Z,101818.78
2022-08-30T12:36:39.667Z,101828.06
2022-08-30T12:41:44.376Z,101817.13
2022-08-30T12:46:50.178Z,101813.66
2022-08-30T12:51:52.964Z,101814.72
2022-08-30T12:57:14.078Z,101815.53
2022-08-30T13:02:41.802Z,101801.38
2022-08-30T13:07:45.619Z,101798.22
2022-08-30T13:13:04.659Z,101794.59
2022-08-30T13:18:27.712Z,101795.47
2022-08-30T13:23:29.954Z,101786.59
2022-08-30T13:28:58.722Z,101773.06
2022-08-30T13:34:02.481Z,101774.16
2022-08-30T13:39:05.957Z,101768.72
2022-08-30T13:44:11.887Z,101772.75
2022-08-30T13:49:43.808Z,101766.75
2022-08-30T13:54:50.002Z,101754.25
2022-08-30T13:59:52.650Z,101752.97
2022-08-30T14:04:56.880Z,101763.78
2022-08-30T14:15:24.762Z,101760.53
2022-08-30T14:20:27.167Z,101758.38
2022-08-30T14:25:29.532Z,101753.50
2022-08-30T14:30:33.306Z,101758.13
2022-08-30T14:35:35.774Z,101754.19
2022-08-30T14:40:38.473Z,101769.25
2022-08-30T14:45:40.859Z,101757.50
2022-08-30T14:50:44.632Z,101761.53
2022-08-30T14:55:46.855Z,101761.88
2022-08-30T15:00:50.966Z,101764.75
2022-08-30T15:05:53.310Z,101759.28
2022-08-30T15:10:55.591Z,101748.09
2022-08-30T15:15:57.901Z,101747.06
2022-08-30T15:21:00.199Z,101752.69
2022-08-30T15:26:03.289Z,101748.97
2022-08-30T15:31:09.092Z,101745.41
2022-08-30T15:36:12.413Z,101741.19
2022-08-30T15:41:15.406Z,101745.03
2022-08-30T15:46:32.027Z,101740.16
2022-08-30T15:51:41.488Z,101739.91
2022-08-30T15:56:45.267Z,101732.47
2022-08-30T16:01:48.207Z,101742.75
2022-08-30T16:06:51.056Z,101741.41
2022-08-30T16:11:54.884Z,101738.88
2022-08-30T16:16:57.683Z,101740.88
2022-08-30T16:22:00.923Z,101730.78
2022-08-30T16:27:03.512Z,101730.34
2022-08-30T16:32:05.915Z,101735.38
2022-08-30T16:37:08.282Z,101740.25
2022-08-30T16:42:11.410Z,101730.09
2022-08-30T16:47:14.348Z,101734.22
2022-08-30T16:52:16.683Z,101725.31
2022-08-30T16:57:20.470Z,101731.69
2022-08-30T17:02:22.853Z,101723.22
2022-08-30T17:07:25.201Z,101733.03
2022-08-30T17:12:27.679Z,101737.34
2022-08-30T17:17:29.922Z,101732.13
2022-08-30T17:22:32.215Z,101731.78
2022-08-30T17:27:34.814Z,101739.25
2022-08-30T17:32:37.150Z,101739.69
2022-08-30T17:37:39.431Z,101752.59
2022-08-30T17:42:41.764Z,101751.34
2022-08-30T17:47:45.647Z,101748.16
2022-08-30T17:52:50.182Z,101759.56
2022-08-30T17:57:52.820Z,101769.41
2022-08-30T18:02:55.996Z,101773.47
2022-08-30T18:07:58.401Z,101780.53
2022-08-30T18:13:03.112Z,101785.22
2022-08-30T18:18:05.455Z,101792.78
2022-08-30T18:23:07.846Z,101804.28
2022-08-30T18:28:16.145Z,101803.13
2022-08-30T18:33:19.939Z,101808.03
2022-08-30T18:38:24.021Z,101809.19
2022-08-30T18:43:30.841Z,101817.38
2022-08-30T18:48:49.073Z,101812.59
2022-08-30T18:53:51.523Z,101805.78
2022-08-30T18:58:53.789Z,101806.91
2022-08-30T19:03:56.056Z,101812.69
2022-08-30T19:08:58.462Z,101816.81
2022-08-30T19:14:02.108Z,101817.97
2022-08-30T19:19:04.481Z,101829.78
2022-08-30T19:24:07.820Z,101829.34
2022-08-30T19:29:10.576Z,101827.56
2022-08-30T19:34:13.256Z,101831.25
2022-08-30T19:39:15.693Z,101827.28
2022-08-30T19:44:19.933Z,101826.41
2022-08-30T19:49:22.539Z,101827.50
2022-08-30T19:54:25.239Z,101827.13
2022-08-30T19:59:27.549Z,101826.72
2022-08-30T20:04:33.514Z,101829.13
2022-08-30T20:09:35.784Z,101820.06
2022-08-30T20:14:38.157Z,101830.53
2022-08-30T20:19:40.588Z,101829.97
2022-08-30T20:24:43.865Z,101821.47
2022-08-30T20:29:46.622Z,101835.06
2022-08-30T20:34:48.933Z,101836.81
2022-08-30T20:39:51.315Z,101837.38
2022-08-30T20:44:54.216Z,101838.66
2022-08-30T20:49:56.532Z,101838.84
2022-08-30T20:54:58.804Z,101849.22
2022-08-30T21:00:01.612Z,101844.28
2022-08-30T21:05:05.366Z,101847.69
2022-08-30T21:10:08.052Z,101848.59
2022-08-30T21:15:34.138Z,101850.63
2022-08-30T21:20:33.338Z,101852.97
2022-08-30T21:25:39.198Z,101855.81
2022-08-30T21:30:41.980Z,101862.06
2022-08-30T21:36:05.817Z,101862.31
2022-08-30T21:41:08.049Z,101865.00
2022-08-30T21:46:10.849Z,101864.75
2022-08-30T21:51:13.317Z,101869.72
2022-08-30T21:56:21.737Z,101875.97
